• Join FlightAware (Why Join?)
  • Login
  • US Flag 
05:10AM EDT


 

Airport Tracker/Info


-or-


 

Live Flight TrackerFlight Track Log ✈ JAL401 ✈ 04-May-2013 ✈ RJAA / NRT - EGLL / LHR

Flight Track Log - Related Links

Times and Time Zones

All times are in EDT time to prevent confusion due to time zone crossing. See the JAL401 flight status page for this flight to view local times or setup timezone preferences in your user account.

Time Position Orientation Groundspeed Altitude Reporting Facility
EDT Latitude Longitude Course Direction KTS MPH feet Rate Location/Type
11:06PM 35.7310 140.4000 150° Southeast 196 226 1,300  Level FlightAware
11:07PM 35.7070 140.4170 150° Southeast 201 231 2,400 2,280 Climbing FlightAware
11:07PM 35.6870 140.4310 150° Southeast 203 234 3,400 1,500 Climbing FlightAware
11:08PM 35.6620 140.4500 148° Southeast 243 280 3,800 1,260 Climbing FlightAware
11:08PM 35.6310 140.4720 150° Southeast 263 303 4,700 2,040 Climbing FlightAware
11:09PM 35.6030 140.4920 150° Southeast 271 312 5,700 2,400 Climbing FlightAware
11:09PM 35.5870 140.5030 151° Southeast 275 316 6,300 2,400 Climbing FlightAware
11:09PM 35.5580 140.5160 160° South 276 318 7,300 2,160 Climbing FlightAware
11:10PM 35.5270 140.5010 201° Southwest 271 312 8,300 2,100 Climbing FlightAware
11:10PM 35.5160 140.4760 242° Southwest 269 310 8,900 2,520 Climbing FlightAware
11:11PM 35.5250 140.4320 284° West 269 310 10,200 2,580 Climbing FlightAware
11:11PM 35.5490 140.4080 321° Northwest 275 316 11,300 1,560 Climbing FlightAware
11:12PM 35.5970 140.3780 333° Northwest 314 361 11,900 900 Climbing FlightAware
11:12PM 35.6590 140.3410 334° Northwest 354 407 12,600 660 Climbing FlightAware
11:13PM 35.7170 140.3050 333° Northwest 377 434 12,900 180 Climbing FlightAware
11:14PM 35.7890 140.2630 335° Northwest 378 435 12,900  Level FlightAware
11:15PM 35.8550 140.2380 343° North 377 434 12,900 60 Level FlightAware
11:15PM 35.9160 140.2160 344° North 377 434 13,000 60 Climbing FlightAware
11:16PM 35.9890 140.1910 345° North 379 436 13,000  Level FlightAware
11:17PM 36.0580 140.1520 335° Northwest 369 425 13,000  Level FlightAware
11:17PM 36.1080 140.0890 314° West 363 418 13,000 540 Level FlightAware
11:18PM 36.1570 140.0210 312° West 364 419 13,800 1,200 Climbing FlightAware
11:19PM 36.2080 139.9510 312° West 373 429 14,700 840 Climbing FlightAware
11:19PM 36.2540 139.8880 312° West 369 425 15,000 180 Climbing FlightAware
11:20PM 36.2960 139.8290 311° West 369 425 15,000 300 Level FlightAware
11:21PM 36.3530 139.7510 312° West 373 429 15,500 1,320 Climbing FlightAware
11:22PM 36.4070 139.6950 320° Northwest 387 445 16,900 2,100 Climbing FlightAware
11:22PM 36.4830 139.6650 342° North 404 465 18,500 2,040 Climbing FlightAware
11:23PM 36.5590 139.6380 344° North 416 479 19,800 1,800 Climbing FlightAware
11:24PM 36.6210 139.6150 343° North 422 486 20,800 1,800 Climbing FlightAware
11:24PM 36.7160 139.5800 344° North 432 497 22,400 1,860 Climbing FlightAware
11:25PM 36.7780 139.5570 343° North 435 501 23,300 1,680 Climbing FlightAware
11:26PM 36.8810 139.5190 344° North 442 509 24,800 1,500 Climbing FlightAware
11:26PM 36.9610 139.4890 343° North 452 520 25,700 1,380 Climbing FlightAware
11:27PM 37.0460 139.4580 344° North 461 531 26,700 1,320 Climbing FlightAware
11:28PM 37.1580 139.4030 339° North 457 526 27,900 1,260 Climbing FlightAware
11:29PM 37.2290 139.3440 327° Northwest 459 528 28,800 1,320 Climbing FlightAware
11:29PM 37.2990 139.2820 325° Northwest 463 533 29,700 1,500 Climbing FlightAware
11:30PM 37.3830 139.2080 325° Northwest 462 532 31,000 1,380 Climbing FlightAware
11:31PM 37.4380 139.1600 325° Northwest 462 532 31,600 720 Climbing FlightAware
11:32PM 37.5140 139.0920 325° Northwest 461 531 32,000 300 Climbing FlightAware
11:32PM 37.5800 139.0340 325° Northwest 463 533 32,000  Level FlightAware
11:33PM 37.6930 138.9330 325° Northwest 469 540 32,000  Level FlightAware
11:34PM 37.7850 138.8520 325° Northwest 460 529 32,000  Level FlightAware
11:34PM 37.8310 138.8110 325° Northwest 458 527 32,000  Level FlightAware
11:35PM 37.9230 138.7290 325° Northwest 457 526 32,000  Level FlightAware
11:36PM 38.0010 138.6590 325° Northwest 459 528 32,000  Level FlightAware
11:37PM 38.0650 138.6010 324° Northwest 458 527 32,000  Level FlightAware
11:37PM 38.1440 138.5290 324° Northwest 462 532 32,000  Level FlightAware
11:38PM 38.2160 138.4640 325° Northwest 461 531 32,000  Level FlightAware
11:39PM 38.2900 138.3980 325° Northwest 460 529 32,000  Level FlightAware
11:40PM 38.3730 138.3350 329° Northwest 461 531 32,000  Level FlightAware
11:40PM 38.4590 138.3190 352° North 468 539 32,000  Level FlightAware
11:42PM 38.6650 138.3170 360° North 475 547 32,000  Level FlightAware
11:43PM 38.7560 138.3170 360° North 475 547 32,000  Level FlightAware
11:43PM 38.8440 138.3150 359° North 478 550 32,000  Level FlightAware
11:44PM 38.9360 138.3130 359° North 470 541 32,000  Level FlightAware
11:45PM 39.0440 138.3120 360° North 464 534 32,000  Level FlightAware
11:45PM 39.1430 138.3100 359° North 463 533 32,000  Level FlightAware
11:46PM 39.2300 138.3090 359° North 464 534 32,000  Level FlightAware
11:47PM 39.3170 138.3080 359° North 464 534 32,000  Level FlightAware
11:47PM 39.4150 138.3070 360° North 470 541 32,000  Level FlightAware
11:48PM 39.5030 138.3050 359° North 470 541 32,000  Level FlightAware
11:49PM 39.6010 138.3040 360° North 463 533 32,000  Level FlightAware
11:50PM 39.6790 138.3030 359° North 469 540 32,000  Level FlightAware
11:50PM 39.7850 138.3020 360° North 466 536 32,000  Level FlightAware
11:51PM 39.8660 138.3010 359° North 465 535 32,000  Level FlightAware
11:52PM 39.9550 138.2990 359° North 464 534 32,000  Level FlightAware
11:52PM 40.0520 138.2980 360° North 452 520 32,000  Level FlightAware
11:53PM 40.1360 138.2970 359° North 451 519 32,000  Level FlightAware
11:54PM 40.2340 138.2950 359° North 449 517 32,000  Level FlightAware
11:54PM 40.3170 138.2940 359° North 447 514 32,000  Level FlightAware
11:55PM 40.4030 138.2930 359° North 454 522 32,000  Level FlightAware
11:56PM 40.4960 138.2920 360° North 453 521 32,000  Level FlightAware
11:57PM 40.5790 138.2910 359° North 451 519 32,000  Level FlightAware
11:57PM 40.6630 138.2900 359° North 452 520 32,000  Level FlightAware
11:58PM 40.7580 138.2880 359° North 454 522 32,000  Level FlightAware
11:59PM 40.8430 138.2870 359° North 454 522 32,000  Level FlightAware
11:59PM 40.9310 138.2860 360° North 454 522 32,000  Level FlightAware
12:00AM 41.0120 138.2850 359° North 454 522 32,000  Level FlightAware
12:01AM 41.1030 138.2830 359° North 447 514 32,000  Level FlightAware
12:01AM 41.1940 138.2820 360° North 447 514 32,000  Level FlightAware
12:02AM 41.2790 138.2810 359° North 447 514 32,000  Level FlightAware
12:03AM 41.3690 138.2800 360° North 454 522 32,000  Level FlightAware
12:04AM 41.4570 138.2780 359° North 454 522 32,000  Level FlightAware
12:04AM 41.5450 138.2770 360° North 453 521 32,000  Level FlightAware
12:05AM 41.6340 138.2760 360° North 454 522 32,000  Level FlightAware
12:06AM 41.7140 138.2750 359° North 447 514 32,000  Level FlightAware
12:06AM 41.8000 138.2730 359° North 447 514 32,000  Level FlightAware
12:07AM 41.9010 138.2720 360° North 449 517 32,000  Level FlightAware
12:08AM 41.9880 138.2710 360° North 449 517 32,000  Level FlightAware
12:08AM 42.0820 138.2690 359° North 450 518 32,000  Level FlightAware
12:11AM 42.3093 138.1278 335° Northwest  Level Estimated
12:11AM 42.3760 138.2650 335° Northwest 454 522 32,000  Level FlightAware
12:11AM 42.4520 138.2640 359° North 453 521 32,000  Level FlightAware
12:12AM 42.5570 138.2620 359° North 453 521 32,000  Level FlightAware
12:13AM 42.6460 138.2600 359° North 453 521 32,000  Level FlightAware
12:14AM 42.7170 138.2580 359° North 453 521 32,000  Level FlightAware
12:14AM 42.7890 138.2560 359° North 453 521 32,000  Level FlightAware
12:15AM 42.8600 138.2550 359° North 453 521 32,000  Level FlightAware
12:16AM 42.9310 138.2530 359° North 453 521 32,000  Level FlightAware
12:17AM 43.0200 138.2510 359° North 453 521 32,000  Level FlightAware
12:17AM 43.0910 138.2490 359° North 453 521 32,000  Level FlightAware
12:18AM 43.1630 138.2470 359° North 453 521 32,000  Level FlightAware
12:19AM 43.4740 138.2480 360° North 454 522 32,000  Level FlightAware
12:20AM 43.5520 138.2470 359° North 447 514 32,000  Level FlightAware
12:21AM 43.6450 138.2450 359° North 447 514 32,000  Level FlightAware
12:22AM 43.7510 138.2380 357° North 454 522 32,000  Level FlightAware
12:22AM 43.8220 138.2330 357° North 454 522 32,000  Level FlightAware
12:23AM 43.9110 138.2260 357° North 454 522 32,000  Level FlightAware
12:24AM 43.9820 138.2210 357° North 454 522 32,000  Level FlightAware
12:25AM 44.0540 138.2160 357° North 454 522 32,000  Level FlightAware
12:25AM 44.1250 138.2100 357° North 454 522 32,000  Level FlightAware
12:26AM 44.2140 138.2040 357° North 454 522 32,000  Level FlightAware
12:27AM 44.2850 138.1990 357° North 454 522 32,000  Level FlightAware
12:27AM 44.3570 138.1940 357° North 454 522 32,000  Level FlightAware
12:28AM 44.4280 138.1880 357° North 454 522 32,000  Level FlightAware
12:29AM 44.4990 138.1830 357° North 454 522 32,000  Level FlightAware
12:29AM 44.5710 138.1780 357° North 454 522 32,000  Level FlightAware
12:30AM 44.6600 138.1710 357° North 454 522 32,000  Level FlightAware
12:31AM 44.7310 138.1660 357° North 454 522 32,000  Level FlightAware
12:33AM 44.9115 138.0473 335° Northwest  Level Estimated
12:34AM 45.0232 137.9736 335° Northwest  Level Estimated
12:35AM 45.1347 137.8995 335° Northwest  Level Estimated
12:36AM 45.2463 137.8252 335° Northwest  Level Estimated
12:37AM 45.3577 137.7505 335° Northwest  Level Estimated
12:38AM 45.4692 137.6756 335° Northwest  Level Estimated
12:39AM 45.5806 137.6003 335° Northwest  Level Estimated
12:40AM 45.6919 137.5248 335° Northwest  Level Estimated
12:41AM 45.8032 137.4490 335° Northwest  Level Estimated
12:42AM 45.9144 137.3728 335° Northwest  Level Estimated
12:43AM 46.0256 137.2964 334° Northwest  Level Estimated
12:43AM 46.3590 138.0790 334° Northwest 436 502 32,000  Level FlightAware
12:44AM 46.4370 138.0740 357° North 436 502 32,000  Level FlightAware
12:44AM 46.5200 138.0630 355° North 436 502 32,000  Level FlightAware
12:45AM 46.6410 138.0100 343° North 442 509 32,000  Level FlightAware
12:46AM 46.7200 137.9710 341° North 441 507 32,000  Level FlightAware
12:47AM 46.7990 137.9320 341° North 442 509 32,000  Level FlightAware
12:47AM 46.8860 137.8900 342° North 444 511 32,000  Level FlightAware
12:48AM 46.9630 137.8520 341° North 443 510 32,000  Level FlightAware
12:49AM 47.0640 137.8030 342° North 440 506 32,000  Level FlightAware
12:50AM 47.1430 137.7630 341° North 443 510 32,000  Level FlightAware
12:50AM 47.2300 137.7200 341° North 444 511 32,000  Level FlightAware
12:51AM 47.3030 137.6840 342° North 447 514 32,000  Level FlightAware
12:52AM 47.3930 137.6390 341° North 448 516 32,000  Level FlightAware
12:53AM 47.4770 137.5970 341° North 449 517 32,000  Level FlightAware
12:53AM 47.5550 137.5580 341° North 452 520 32,000  Level FlightAware
12:54AM 47.6400 137.5150 341° North 452 520 32,000  Level FlightAware
12:55AM 47.7310 137.4690 341° North 454 522 32,000  Level FlightAware
12:55AM 47.8120 137.4280 341° North 453 521 32,000  Level FlightAware
12:56AM 47.8910 137.3880 341° North 453 521 32,000  Level FlightAware
12:57AM 47.9680 137.3490 341° North 455 524 32,000  Level FlightAware
12:57AM 48.0400 137.3120 341° North 454 522 32,000  Level FlightAware
12:58AM 48.1090 137.2770 341° North 454 522 32,000  Level FlightAware
12:59AM 48.1920 137.2340 341° North 456 525 32,000  Level FlightAware
12:59AM 48.2890 137.1830 341° North 459 528 32,000  Level FlightAware
01:00AM 48.3730 137.1400 341° North 458 527 32,000  Level FlightAware
01:01AM 48.4610 137.0940 341° North 457 526 32,000  Level FlightAware
01:01AM 48.5300 137.0580 341° North 459 528 32,000  Level FlightAware
01:02AM 48.6130 137.0150 341° North 460 529 32,000  Level FlightAware
01:03AM 48.6930 136.9730 341° North 457 526 32,000  Level FlightAware
01:04AM 48.7860 136.9240 341° North 458 527 32,000  Level FlightAware
01:04AM 48.8770 136.8760 341° North 457 526 32,000  Level FlightAware
01:05AM 48.9590 136.8320 341° North 460 529 32,000  Level FlightAware
01:06AM 49.0430 136.7870 341° North 461 531 32,000  Level FlightAware
01:06AM 49.1250 136.7430 341° North 464 534 32,000  Level FlightAware
01:07AM 49.2070 136.6980 340° North 465 535 32,000  Level FlightAware
01:08AM 49.2990 136.6470 340° North 466 536 32,000  Level FlightAware
01:08AM 49.3740 136.6070 341° North 466 536 32,000  Level FlightAware
01:09AM 49.4680 136.5460 337° Northwest 474 545 32,000  Level FlightAware
01:10AM 49.5480 136.4770 331° Northwest 478 550 32,000  Level FlightAware
01:10AM 49.6170 136.4140 329° Northwest 481 554 32,000  Level FlightAware
01:12AM 49.7430 136.2920 328° Northwest 483 556 32,000  Level FlightAware
01:12AM 49.8110 136.2260 328° Northwest 481 554 32,000  Level FlightAware
01:13AM 49.8800 136.1600 328° Northwest 482 555 32,000  Level FlightAware
01:14AM 49.9720 136.0710 328° Northwest 484 557 32,000  Level FlightAware
01:14AM 50.0580 135.9880 328° Northwest 484 557 32,000  Level FlightAware
01:15AM 50.1420 135.9060 328° Northwest 485 558 32,000  Level FlightAware
01:16AM 50.2330 135.8160 328° Northwest 485 558 32,000  Level FlightAware
01:17AM 50.3080 135.7430 328° Northwest 485 558 32,000  Level FlightAware
01:17AM 50.4100 135.6420 328° Northwest 487 560 32,000  Level FlightAware
01:18AM 50.5110 135.5420 328° Northwest 488 562 32,000  Level FlightAware
01:19AM 50.5700 135.4830 328° Northwest 489 563 32,000  Level FlightAware
01:20AM 50.6610 135.3920 328° Northwest 490 564 32,000  Level FlightAware
01:20AM 50.7360 135.3170 328° Northwest 491 565 32,000  Level FlightAware
01:21AM 50.8160 135.2360 327° Northwest 492 566 32,000  Level FlightAware
01:22AM 50.8990 135.1520 327° Northwest 492 566 32,000  Level FlightAware
01:22AM 51.0090 135.0440 328° Northwest 493 567 32,000  Level FlightAware
01:23AM 51.0850 134.9690 328° Northwest 495 570 32,000  Level FlightAware
01:24AM 51.1410 134.9130 328° Northwest 494 568 32,000  Level FlightAware
01:24AM 51.2360 134.8190 328° Northwest 496 571 32,000  Level FlightAware
01:25AM 51.2870 134.7680 328° Northwest 496 571 32,000  Level FlightAware
01:26AM 51.3430 134.7110 328° Northwest 497 572 32,000  Level FlightAware
01:26AM 51.4380 134.6160 328° Northwest 497 572 32,000  Level FlightAware
01:27AM 51.5730 134.4800 328° Northwest 498 573 32,000  Level FlightAware
01:28AM 51.6470 134.4050 328° Northwest 498 573 32,000 60 Level FlightAware
01:29AM 51.7460 134.3040 328° Northwest 498 573 32,100 180 Climbing FlightAware
01:29AM 51.7790 134.2700 327° Northwest 494 568 32,300 120 Climbing FlightAware
01:30AM 51.8570 134.1880 327° Northwest 494 568 32,300  Level FlightAware
01:31AM 51.9220 134.1200 327° Northwest 494 568 32,300  Level FlightAware
01:32AM 52.0040 134.0340 327° Northwest 494 568 32,300  Level FlightAware
01:32AM 52.0690 133.9650 327° Northwest 494 568 32,300  Level FlightAware
01:33AM 52.1340 133.8960 327° Northwest 494 568 32,300  Level FlightAware
01:34AM 52.1990 133.8270 327° Northwest 494 568 32,300  Level FlightAware
01:34AM 52.2640 133.7580 327° Northwest 494 568 32,300  Level FlightAware
01:35AM 52.3300 133.6890 327° Northwest 494 568 32,300  Level FlightAware
01:36AM 52.4110 133.6020 327° Northwest 494 568 32,300  Level FlightAware
01:36AM 52.4760 133.5330 327° Northwest 494 568 32,300  Level FlightAware
01:37AM 52.5410 133.4630 327° Northwest 494 568 32,300  Level FlightAware
01:38AM 52.6060 133.3940 327° Northwest 494 568 32,300  Level FlightAware
01:38AM 52.6720 133.3240 327° Northwest 494 568 32,300  Level FlightAware
01:39AM 52.7530 133.2360 327° Northwest 494 568 32,300  Level FlightAware
01:42AM 52.9905 133.0181 331° Northwest  Level Estimated
01:43AM 53.0983 132.9183 331° Northwest  Level Estimated
01:44AM 53.2060 132.8179 331° Northwest  Level Estimated
01:45AM 53.3137 132.7171 331° Northwest  Level Estimated
01:46AM 53.4212 132.6158 331° Northwest  Level Estimated
01:47AM 53.5287 132.5139 331° Northwest  Level Estimated
01:48AM 53.6361 132.4115 331° Northwest  Level Estimated
01:49AM 53.7434 132.3086 330° Northwest  Level Estimated
01:50AM 53.8506 132.2052 330° Northwest  Level Estimated
01:51AM 53.9577 132.1012 330° Northwest  Level Estimated
01:52AM 54.0648 131.9967 330° Northwest  Level Estimated
01:53AM 54.1717 131.8917 330° Northwest  Level Estimated
01:54AM 54.2786 131.7861 330° Northwest  Level Estimated
01:55AM 54.3853 131.6800 330° Northwest  Level Estimated
01:56AM 54.4920 131.5733 330° Northwest  Level Estimated
01:57AM 54.5986 131.4660 330° Northwest  Level Estimated
01:58AM 54.7050 131.3582 330° Northwest  Level Estimated
01:59AM 54.8114 131.2499 330° Northwest  Level Estimated
02:00AM 54.9177 131.1409 330° Northwest  Level Estimated
02:01AM 55.0239 131.0314 329° Northwest  Level Estimated
02:02AM 55.1301 130.9212 329° Northwest  Level Estimated
02:03AM 55.2363 130.8103 329° Northwest  Level Estimated
02:04AM 55.3423 130.6989 329° Northwest  Level Estimated
02:05AM 55.4482 130.5868 329° Northwest  Level Estimated
02:06AM 55.5541 130.4742 329° Northwest  Level Estimated
02:07AM 55.6598 130.3609 329° Northwest  Level Estimated
02:08AM 55.7654 130.2471 329° Northwest  Level Estimated
02:09AM 55.8709 130.1326 329° Northwest  Level Estimated
02:10AM 55.9763 130.0175 329° Northwest  Level Estimated
02:11AM 56.0816 129.9018 328° Northwest  Level Estimated
02:12AM 56.1868 129.7854 328° Northwest  Level Estimated
02:13AM 56.2919 129.6684 328° Northwest  Level Estimated
02:14AM 56.3969 129.5507 328° Northwest  Level Estimated
02:15AM 56.5017 129.4324 328° Northwest  Level Estimated
02:16AM 56.6065 129.3135 328° Northwest  Level Estimated
02:17AM 56.7111 129.1938 328° Northwest  Level Estimated
02:18AM 56.8156 129.0736 328° Northwest  Level Estimated
02:19AM 56.9200 128.9526 328° Northwest  Level Estimated
02:20AM 57.0243 128.8310 328° Northwest  Level Estimated
02:21AM 57.1285 128.7086 328° Northwest  Level Estimated
02:22AM 57.2325 128.5856 327° Northwest  Level Estimated
02:23AM 57.3364 128.4619 327° Northwest  Level Estimated
02:24AM 57.4403 128.3375 327° Northwest  Level Estimated
02:25AM 57.5439 128.2124 327° Northwest  Level Estimated
02:26AM 57.6475 128.0866 327° Northwest  Level Estimated
02:27AM 57.7509 127.9600 327° Northwest  Level Estimated
02:28AM 57.8542 127.8327 327° Northwest  Level Estimated
02:29AM 57.9574 127.7047 327° Northwest  Level Estimated
02:30AM 58.0604 127.5760 327° Northwest  Level Estimated
02:31AM 58.1633 127.4465 326° Northwest  Level Estimated
02:32AM 58.2661 127.3163 326° Northwest  Level Estimated
02:33AM 58.3688 127.1853 326° Northwest  Level Estimated
02:34AM 58.4713 127.0535 326° Northwest  Level Estimated
02:35AM 58.5737 126.9210 326° Northwest  Level Estimated
02:36AM 58.6759 126.7877 326° Northwest  Level Estimated
02:37AM 58.7780 126.6536 326° Northwest  Level Estimated
02:38AM 58.8800 126.5187 326° Northwest  Level Estimated
02:39AM 58.9818 126.3830 326° Northwest  Level Estimated
02:40AM 59.0835 126.2465 325° Northwest  Level Estimated
02:41AM 59.1850 126.1092 325° Northwest  Level Estimated
02:42AM 59.2864 125.9711 325° Northwest  Level Estimated
02:43AM 59.3876 125.8322 325° Northwest  Level Estimated
02:44AM 59.4887 125.6924 325° Northwest  Level Estimated
02:45AM 59.5896 125.5518 325° Northwest  Level Estimated
02:46AM 59.6904 125.4104 325° Northwest  Level Estimated
02:47AM 59.7911 125.2681 325° Northwest  Level Estimated
02:48AM 59.8915 125.1249 324° Northwest  Level Estimated
02:49AM 59.9919 124.9809 324° Northwest  Level Estimated
02:50AM 60.0920 124.8359 324° Northwest  Level Estimated
02:51AM 60.1921 124.6901 324° Northwest  Level Estimated
02:52AM 60.2919 124.5435 324° Northwest  Level Estimated
02:53AM 60.3917 124.3957 324° Northwest  Level Estimated
02:54AM 60.4914 124.2470 324° Northwest  Level Estimated
02:55AM 60.5909 124.0974 324° Northwest  Level Estimated
02:56AM 60.6902 123.9468 323° Northwest  Level Estimated
02:57AM 60.7894 123.7953 323° Northwest  Level Estimated
02:58AM 60.8884 123.6429 323° Northwest  Level Estimated
02:59AM 60.9872 123.4896 323° Northwest  Level Estimated
03:00AM 61.0858 123.3353 323° Northwest  Level Estimated
03:01AM 61.1843 123.1800 323° Northwest  Level Estimated
03:02AM 61.2826 123.0237 323° Northwest  Level Estimated
03:03AM 61.3807 122.8665 323° Northwest  Level Estimated
03:04AM 61.4786 122.7083 322° Northwest  Level Estimated
03:05AM 61.5764 122.5491 322° Northwest  Level Estimated
03:06AM 61.6739 122.3888 322° Northwest  Level Estimated
03:07AM 61.7713 122.2276 322° Northwest  Level Estimated
03:08AM 61.8684 122.0653 322° Northwest  Level Estimated
03:09AM 61.9654 121.9020 322° Northwest  Level Estimated
03:10AM 62.0622 121.7377 322° Northwest  Level Estimated
03:11AM 62.1588 121.5723 321° Northwest  Level Estimated
03:12AM 62.2552 121.4059 321° Northwest  Level Estimated
03:13AM 62.3514 121.2384 321° Northwest  Level Estimated
03:14AM 62.4474 121.0698 321° Northwest  Level Estimated
03:15AM 62.5432 120.9001 321° Northwest  Level Estimated
03:16AM 62.6387 120.7293 321° Northwest  Level Estimated
03:17AM 62.7341 120.5575 320° Northwest  Level Estimated
03:18AM 62.8293 120.3845 320° Northwest  Level Estimated
03:19AM 62.9242 120.2104 320° Northwest  Level Estimated
03:20AM 63.0189 120.0352 320° Northwest  Level Estimated
03:21AM 63.1134 119.8588 320° Northwest  Level Estimated
03:22AM 63.2077 119.6813 320° Northwest  Level Estimated
03:23AM 63.3018 119.5026 320° Northwest  Level Estimated
03:24AM 63.3956 119.3227 319° Northwest  Level Estimated
03:25AM 63.4893 119.1417 319° Northwest  Level Estimated
03:26AM 63.5826 118.9595 319° Northwest  Level Estimated
03:27AM 63.6758 118.7761 319° Northwest  Level Estimated
03:28AM 63.7687 118.5915 319° Northwest  Level Estimated
03:29AM 63.8614 118.4056 319° Northwest  Level Estimated
03:30AM 63.9538 118.2185 318° Northwest  Level Estimated
03:31AM 64.0460 118.0302 318° Northwest  Level Estimated
03:32AM 64.1380 117.8407 318° Northwest  Level Estimated
03:33AM 64.2297 117.6499 318° Northwest  Level Estimated
03:34AM 64.3211 117.4578 318° Northwest  Level Estimated
03:35AM 64.4123 117.2644 318° Northwest  Level Estimated
03:36AM 64.5033 117.0698 317° Northwest  Level Estimated
03:37AM 64.5939 116.8738 317° Northwest  Level Estimated
03:38AM 64.6844 116.6766 317° Northwest  Level Estimated
03:39AM 64.7745 116.4780 317° Northwest  Level Estimated
03:40AM 64.8644 116.2781 317° Northwest  Level Estimated
03:41AM 64.9540 116.0769 316° Northwest  Level Estimated
03:42AM 65.0434 115.8743 316° Northwest  Level Estimated
03:43AM 65.1324 115.6703 316° Northwest  Level Estimated
03:44AM 65.2212 115.4650 316° Northwest  Level Estimated
03:45AM 65.3098 115.2583 316° Northwest  Level Estimated
03:46AM 65.3980 115.0502 316° Northwest  Level Estimated
03:47AM 65.4859 114.8407 315° West  Level Estimated
03:48AM 65.5736 114.6298 315° West  Level Estimated
03:49AM 65.6609 114.4175 315° West  Level Estimated
03:50AM 65.7480 114.2037 315° West  Level Estimated
03:51AM 65.8347 113.9885 315° West  Level Estimated
03:52AM 65.9212 113.7719 314° West  Level Estimated
03:53AM 66.0073 113.5537 314° West  Level Estimated
03:54AM 66.0932 113.3341 314° West  Level Estimated
03:55AM 66.1787 113.1130 314° West  Level Estimated
03:56AM 66.2639 112.8904 314° West  Level Estimated
03:57AM 66.3488 112.6663 313° West  Level Estimated
03:58AM 66.4333 112.4407 313° West  Level Estimated
03:59AM 66.5175 112.2136 313° West  Level Estimated
04:00AM 66.6014 111.9849 313° West  Level Estimated
04:01AM 66.6849 111.7550 313° West  Level Estimated
04:02AM 66.7680 111.5236 312° West  Level Estimated
04:03AM 66.8508 111.2905 312° West  Level Estimated
04:04AM 66.9332 111.0559 312° West  Level Estimated
04:05AM 67.0153 110.8197 312° West  Level Estimated
04:06AM 67.0970 110.5820 312° West  Level Estimated
04:07AM 67.1783 110.3426 311° West  Level Estimated
04:08AM 67.2593 110.1016 311° West  Level Estimated
04:09AM 67.3400 109.8589 311° West  Level Estimated
04:10AM 67.4202 109.6146 311° West  Level Estimated
04:11AM 67.5002 109.3687 310° West  Level Estimated
04:12AM 67.5797 109.1211 310° West  Level Estimated
04:13AM 67.6588 108.8719 310° West  Level Estimated
04:14AM 67.7376 108.6210 310° West  Level Estimated
04:15AM 67.8159 108.3684 309° West  Level Estimated
04:16AM 67.8939 108.1141 309° West  Level Estimated
04:17AM 67.9715 107.8580 309° West  Level Estimated
04:18AM 68.0487 107.6003 309° West  Level Estimated
04:19AM 68.1255 107.3409 309° West  Level Estimated
04:20AM 68.2018 107.0797 308° West  Level Estimated
04:21AM 68.2778 106.8167 308° West  Level Estimated
04:22AM 68.3533 106.5521 308° West  Level Estimated
04:23AM 68.4285 106.2856 308° West  Level Estimated
04:24AM 68.5031 106.0174 307° West  Level Estimated
04:25AM 68.5774 105.7474 307° West  Level Estimated
04:26AM 68.6512 105.4757 307° West  Level Estimated
04:27AM 68.7246 105.2021 307° West  Level Estimated
04:28AM 68.7975 104.9267 306° West  Level Estimated
04:29AM 68.8700 104.6496 306° West  Level Estimated
04:30AM 68.9421 104.3706 306° West  Level Estimated
04:31AM 69.0136 104.0898 306° West  Level Estimated
04:32AM 69.0848 103.8072 305° West  Level Estimated
04:33AM 69.1554 103.5227 305° West  Level Estimated
04:34AM 69.2256 103.2364 305° West  Level Estimated
04:35AM 69.2953 102.9482 304° West  Level Estimated
04:36AM 69.3645 102.6582 304° West  Level Estimated
04:37AM 69.4333 102.3663 304° West  Level Estimated
04:38AM 69.5015 102.0726 304° West  Level Estimated
04:39AM 69.5692 101.7770 303° West  Level Estimated
04:40AM 69.6365 101.4795 303° West  Level Estimated
04:41AM 69.7032 101.1802 303° West  Level Estimated
04:42AM 69.7694 100.8789 303° West  Level Estimated
04:43AM 69.8351 100.5758 302° West  Level Estimated
04:44AM 69.9003 100.2707 302° West  Level Estimated
04:45AM 69.9650 99.9638 302° West  Level Estimated
04:46AM 70.0291 99.6550 301° West  Level Estimated
04:47AM 70.0927 99.3443 301° West  Level Estimated
04:48AM 70.1557 99.0316 301° West  Level Estimated
04:49AM 70.2182 98.7171 301° West  Level Estimated
04:50AM 70.2801 98.4007 300° West  Level Estimated
04:51AM 70.3415 98.0824 300° West  Level Estimated
04:52AM 70.4023 97.7621 300° West  Level Estimated
04:53AM 70.4626 97.4400 299° West  Level Estimated
04:54AM 70.5222 97.1159 299° West  Level Estimated
04:55AM 70.5813 96.7899 299° West  Level Estimated
04:56AM 70.6398 96.4621 298° West  Level Estimated
04:57AM 70.6977 96.1323 298° West  Level Estimated
04:58AM 70.7551 95.8007 298° West  Level Estimated
04:59AM 70.8118 95.4671 297° West  Level Estimated
05:00AM 70.8679 95.1317 297° West  Level Estimated
05:01AM 70.9234 94.7943 297° West  Level Estimated
05:02AM 70.9783 94.4551 297° West  Level Estimated
05:03AM 71.0325 94.1140 296° West  Level Estimated
05:04AM 71.0862 93.7710 296° West  Level Estimated
05:05AM 71.1392 93.4261 296° West  Level Estimated
05:06AM 71.1916 93.0794 295° West  Level Estimated
05:07AM 71.2433 92.7309 295° West  Level Estimated
05:08AM 71.2943 92.3805 295° West  Level Estimated
05:09AM 71.3448 92.0282 294° West  Level Estimated
05:10AM 71.3945 91.6741 294° West  Level Estimated
05:11AM 71.4436 91.3182 294° West  Level Estimated
05:12AM 71.4920 90.9605 293° West  Level Estimated
05:13AM 71.5398 90.6010 293° West  Level Estimated
05:14AM 71.5869 90.2398 293° West  Level Estimated
05:15AM 71.6332 89.8767 292° West  Level Estimated
05:16AM 71.6789 89.5119 292° West  Level Estimated
05:17AM 71.7239 89.1453 292° West  Level Estimated
05:18AM 71.7683 88.7765 291° West  Level Estimated
05:19AM 71.8119 88.4059 291° West  Level Estimated
05:20AM 71.8548 88.0336 290° West  Level Estimated
05:21AM 71.8970 87.6597 290° West  Level Estimated
05:22AM 71.9385 87.2840 290° West  Level Estimated
05:23AM 71.9793 86.9067 289° West  Level Estimated
05:24AM 72.0193 86.5278 289° West  Level Estimated
05:25AM 72.0586 86.1473 289° West  Level Estimated
05:26AM 72.0971 85.7651 288° West  Level Estimated
05:27AM 72.1349 85.3814 288° West  Level Estimated
05:28AM 72.1720 84.9961 288° West  Level Estimated
05:29AM 72.2082 84.6093 287° West  Level Estimated
05:30AM 72.2438 84.2209 287° West  Level Estimated
05:31AM 72.2785 83.8311 286° West  Level Estimated
05:32AM 72.3125 83.4398 286° West  Level Estimated
05:33AM 72.3457 83.0471 286° West  Level Estimated
05:34AM 72.3781 82.6529 285° West  Level Estimated
05:35AM 72.4098 82.2574 285° West  Level Estimated
05:36AM 72.4406 81.8605 285° West  Level Estimated
05:37AM 72.4706 81.4622 284° West  Level Estimated
05:38AM 72.4999 81.0627 284° West  Level Estimated
05:39AM 72.5284 80.6619 283° West  Level Estimated
05:40AM 72.5560 80.2598 283° West  Level Estimated
05:41AM 72.5828 79.8565 283° West  Level Estimated
05:42AM 72.6089 79.4520 282° West  Level Estimated
05:43AM 72.6341 79.0464 282° West  Level Estimated
05:44AM 72.6585 78.6396 282° West  Level Estimated
05:45AM 72.6821 78.2318 281° West  Level Estimated
05:46AM 72.7048 77.8229 281° West  Level Estimated
05:47AM 72.7267 77.4129 280° West  Level Estimated
05:48AM 72.7478 77.0020 280° West  Level Estimated
05:49AM 72.7680 76.5901 280° West  Level Estimated
05:50AM 72.7874 76.1773 279° West  Level Estimated
05:51AM 72.8060 75.7637 279° West  Level Estimated
05:52AM 72.8237 75.3491 278° West  Level Estimated
05:53AM 72.8405 74.9338 278° West  Level Estimated
05:54AM 72.8565 74.5177 278° West  Level Estimated
05:55AM 72.8717 74.1002 277° West  Level Estimated
05:56AM 72.8860 73.6821 277° West  Level Estimated
05:57AM 72.8995 73.2633 276° West  Level Estimated
05:58AM 72.9121 72.8439 276° West  Level Estimated
05:59AM 72.9238 72.4239 276° West  Level Estimated
06:00AM 72.9347 72.0033 275° West  Level Estimated
06:01AM 72.9447 71.5823 275° West  Level Estimated
06:02AM 72.9539 71.1608 274° West  Level Estimated
06:03AM 72.9621 70.7389 274° West  Level Estimated
06:04AM 72.9695 70.3166 274° West  Level Estimated
06:05AM 72.9761 69.8939 273° West  Level Estimated
06:06AM 72.9817 69.4710 273° West  Level Estimated
06:07AM 72.9865 69.0484 272° West  Level Estimated
06:08AM 72.9904 68.6257 272° West  Level Estimated
06:09AM 72.9934 68.2027 272° West  Level Estimated
06:10AM 72.9955 67.7797 271° West  Level Estimated
06:11AM 72.9968 67.3565 271° West  Level Estimated
06:12AM 72.9972 66.9333 270° West  Level Estimated
06:13AM 72.9967 66.5101 270° West  Level Estimated
06:14AM 72.9954 66.0870 270° West  Level Estimated
06:15AM 72.9932 65.6639 269° West  Level Estimated
06:16AM 72.9901 65.2410 269° West  Level Estimated
06:17AM 72.9861 64.8182 268° West  Level Estimated
06:18AM 72.9813 64.3957 268° West  Level Estimated
06:19AM 72.9756 63.9734 268° West  Level Estimated
06:20AM 72.9690 63.5514 267° West  Level Estimated
06:21AM 72.9615 63.1297 267° West  Level Estimated
06:22AM 72.9532 62.7084 266° West  Level Estimated
06:23AM 72.9440 62.2876 266° West  Level Estimated
06:24AM 72.9340 61.8672 266° West  Level Estimated
06:25AM 72.9231 61.4473 265° West  Level Estimated
06:26AM 72.9113 61.0279 265° West  Level Estimated
06:27AM 72.8986 60.6091 264° West  Level Estimated
06:28AM 72.8851 60.1910 264° West  Level Estimated
06:29AM 72.8708 59.7735 264° West  Level Estimated
06:30AM 72.8556 59.3567 263° West  Level Estimated
06:31AM 72.8395 58.9406 263° West  Level Estimated
06:32AM 72.8226 58.5253 262° West  Level Estimated
06:33AM 72.8048 58.1108 262° West  Level Estimated
06:34AM 72.7862 57.6972 262° West  Level Estimated
06:35AM 72.7668 57.2845 261° West  Level Estimated
06:36AM 72.7465 56.8726 261° West  Level Estimated
06:37AM 72.7254 56.4618 260° West  Level Estimated
06:38AM 72.7034 56.0519 260° West  Level Estimated
06:39AM 72.6806 55.6431 260° West  Level Estimated
06:40AM 72.6570 55.2353 259° West  Level Estimated
06:41AM 72.6326 54.8286 259° West  Level Estimated
06:42AM 72.6073 54.4230 258° West  Level Estimated
06:43AM 72.5812 54.0186 258° West  Level Estimated
06:44AM 72.5543 53.6154 258° West  Level Estimated
06:45AM 72.5266 53.2134 257° West  Level Estimated
06:46AM 72.4981 52.8126 257° West  Level Estimated
06:47AM 72.4688 52.4132 256° West  Level Estimated
06:48AM 72.4387 52.0150 256° West  Level Estimated
06:49AM 72.4078 51.6182 256° West  Level Estimated
06:50AM 72.3762 51.2227 255° West  Level Estimated
06:51AM 72.3437 50.8287 255° West  Level Estimated
06:52AM 72.3104 50.4360 255° West  Level Estimated
06:53AM 72.2764 50.0448 254° West  Level Estimated
06:54AM 72.2416 49.6551 254° West  Level Estimated
06:55AM 72.2060 49.2668 253° West  Level Estimated
06:56AM 72.1697 48.8801 253° West  Level Estimated
06:57AM 72.1326 48.4949 253° West  Level Estimated
06:58AM 72.0947 48.1107 252° West  Level Estimated
06:59AM 72.0561 47.7281 252° West  Level Estimated
07:00AM 72.0167 47.3471 252° West  Level Estimated
07:01AM 71.9766 46.9678 251° West  Level Estimated
07:02AM 71.9357 46.5900 251° West  Level Estimated
07:03AM 71.8941 46.2140 251° West  Level Estimated
07:04AM 71.8518 45.8396 250° West  Level Estimated
07:05AM 71.8087 45.4669 250° West  Level Estimated
07:06AM 71.7650 45.0960 249° West  Level Estimated
07:07AM 71.7205 44.7267 249° West  Level Estimated
07:08AM 71.6753 44.3592 249° West  Level Estimated
07:09AM 71.6295 43.9935 248° West  Level Estimated
07:10AM 71.5829 43.6295 248° West  Level Estimated
07:11AM 71.5356 43.2674 248° West  Level Estimated
07:12AM 71.4877 42.9070 247° West  Level Estimated
07:13AM 71.4391 42.5484 247° West  Level Estimated
07:14AM 71.3898 42.1917 247° West  Level Estimated
07:15AM 71.3398 41.8367 246° West  Level Estimated
07:16AM 71.2892 41.4837 246° West  Level Estimated
07:17AM 71.2379 41.1324 246° West  Level Estimated
07:18AM 71.1860 40.7831 245° Southwest  Level Estimated
07:19AM 71.1334 40.4356 245° Southwest  Level Estimated
07:20AM 71.0802 40.0904 245° Southwest  Level Estimated
07:21AM 71.0265 39.7472 244° Southwest  Level Estimated
07:22AM 70.9720 39.4058 244° Southwest  Level Estimated
07:23AM 70.9170 39.0663 244° Southwest  Level Estimated
07:24AM 70.8614 38.7287 243° Southwest  Level Estimated
07:25AM 70.8051 38.3930 243° Southwest  Level Estimated
07:26AM 70.7482 38.0592 243° Southwest  Level Estimated
07:27AM 70.6907 37.7272 242° Southwest  Level Estimated
07:28AM 70.6327 37.3973 242° Southwest  Level Estimated
07:29AM 70.5740 37.0691 242° Southwest  Level Estimated
07:30AM 70.5147 36.7430 242° Southwest  Level Estimated
07:31AM 70.4549 36.4187 241° Southwest  Level Estimated
07:32AM 70.3945 36.0963 241° Southwest  Level Estimated
07:33AM 70.3335 35.7759 241° Southwest  Level Estimated
07:34AM 70.2719 35.4569 240° Southwest  Level Estimated
07:35AM 70.2097 35.1398 240° Southwest  Level Estimated
07:36AM 70.1470 34.8246 240° Southwest  Level Estimated
07:37AM 70.0837 34.5114 239° Southwest  Level Estimated
07:38AM 70.0198 34.2000 239° Southwest  Level Estimated
07:39AM 69.9554 33.8906 239° Southwest  Level Estimated
07:40AM 69.8905 33.5831 239° Southwest  Level Estimated
07:41AM 69.8251 33.2775 238° Southwest  Level Estimated
07:42AM 69.7591 32.9737 238° Southwest  Level Estimated
07:43AM 69.6926 32.6719 238° Southwest  Level Estimated
07:44AM 69.6256 32.3720 237° Southwest  Level Estimated
07:44AM 65.2880 30.9790 237° Southwest 435 501 36,000  Level FlightAware
07:44AM 65.2460 30.8160 238° Southwest 435 501 36,000  Level FlightAware
07:45AM 65.1980 30.6260 239° Southwest 435 501 36,000  Level FlightAware
07:46AM 65.1590 30.4760 238° Southwest 436 502 36,000  Level FlightAware
07:47AM 65.1130 30.2950 239° Southwest 434 499 36,000  Level FlightAware
07:47AM 65.0700 30.1300 238° Southwest 432 497 36,000  Level FlightAware
07:48AM 65.0290 29.9760 238° Southwest 433 498 36,000  Level FlightAware
07:49AM 64.9810 29.7960 238° Southwest 432 497 36,000  Level FlightAware
07:49AM 64.9360 29.6270 238° Southwest 432 497 36,000  Level FlightAware
07:50AM 64.8920 29.4660 237° Southwest 434 499 36,000  Level FlightAware
07:51AM 64.8430 29.2920 237° Southwest 437 503 36,000  Level FlightAware
07:51AM 64.8010 29.1440 236° Southwest 438 504 36,000  Level FlightAware
07:52AM 64.7490 28.9600 237° Southwest 439 505 36,000  Level FlightAware
07:53AM 64.7040 28.8030 236° Southwest 434 499 36,000  Level FlightAware
07:54AM 64.6530 28.6270 236° Southwest 432 497 36,000  Level FlightAware
07:54AM 64.6100 28.4780 236° Southwest 434 499 36,000  Level FlightAware
07:55AM 64.5660 28.3260 236° Southwest 434 499 36,000  Level FlightAware
07:56AM 64.5110 28.1400 236° Southwest 437 503 36,000  Level FlightAware
07:56AM 64.4680 27.9940 236° Southwest 439 505 36,000  Level FlightAware
07:57AM 64.4160 27.8220 235° Southwest 437 503 36,000  Level FlightAware
07:58AM 64.3710 27.6720 235° Southwest 433 498 36,000  Level FlightAware
07:58AM 64.3230 27.5140 235° Southwest 432 497 36,000  Level FlightAware
07:59AM 64.2710 27.3410 235° Southwest 431 496 36,000  Level FlightAware
08:00AM 64.2260 27.1950 235° Southwest 431 496 36,000  Level FlightAware
08:01AM 64.1730 27.0230 235° Southwest 428 493 36,000  Level FlightAware
08:01AM 64.1270 26.8780 234° Southwest 426 490 36,000  Level FlightAware
08:02AM 64.0820 26.7320 235° Southwest 424 488 36,000  Level FlightAware
08:03AM 64.0310 26.5710 234° Southwest 425 489 36,000  Level FlightAware
08:03AM 63.9850 26.4260 234° Southwest 427 491 36,000  Level FlightAware
08:04AM 63.9370 26.2780 234° Southwest 426 490 36,000  Level FlightAware
08:05AM 63.8870 26.1200 234° Southwest 426 490 36,000  Level FlightAware
08:05AM 63.8400 25.9770 233° Southwest 425 489 36,000  Level FlightAware
08:06AM 63.7860 25.8120 234° Southwest 426 490 36,000  Level FlightAware
08:07AM 63.7390 25.6690 233° Southwest 427 491 36,000  Level FlightAware
08:08AM 63.6880 25.5130 234° Southwest 429 494 36,000  Level FlightAware
08:08AM 63.6400 25.3690 233° Southwest 430 495 36,000  Level FlightAware
08:09AM 63.5750 25.1770 233° Southwest 430 495 36,000  Level FlightAware
08:10AM 63.5210 25.0180 233° Southwest 430 495 36,000  Level FlightAware
08:11AM 63.4730 24.8760 233° Southwest 431 496 36,000  Level FlightAware
08:11AM 63.4230 24.7290 233° Southwest 430 495 36,000  Level FlightAware
08:12AM 63.3700 24.5750 233° Southwest 428 493 36,000  Level FlightAware
08:13AM 63.3230 24.4400 232° Southwest 426 490 36,000  Level FlightAware
08:14AM 63.2550 24.2460 232° Southwest 423 487 36,000  Level FlightAware
08:14AM 63.2000 24.0900 232° Southwest 425 489 36,000  Level FlightAware
08:15AM 63.1510 23.9510 232° Southwest 426 490 36,000  Level FlightAware
08:16AM 63.1010 23.8130 231° Southwest 425 489 36,000  Level FlightAware
08:16AM 63.0460 23.6590 232° Southwest 426 490 36,000  Level FlightAware
08:17AM 62.9960 23.5210 231° Southwest 427 491 36,000  Level FlightAware
08:18AM 62.9460 23.3840 231° Southwest 426 490 36,000  Level FlightAware
08:18AM 62.8900 23.2310 231° Southwest 430 495 36,000  Level FlightAware
08:19AM 62.8400 23.0960 231° Southwest 430 495 36,000  Level FlightAware
08:20AM 62.7840 22.9440 231° Southwest 433 498 36,000  Level FlightAware
08:21AM 62.7330 22.8080 231° Southwest 434 499 36,000  Level FlightAware
08:21AM 62.6830 22.6730 231° Southwest 434 499 36,000  Level FlightAware
08:24AM 62.5334 22.1467 239° Southwest  Level Estimated
08:25AM 62.4677 21.9195 238° Southwest  Level Estimated
08:26AM 62.4017 21.6934 238° Southwest  Level Estimated
08:27AM 62.3353 21.4682 238° Southwest  Level Estimated
08:28AM 62.2685 21.2440 237° Southwest  Level Estimated
08:28AM 62.1680 21.3460 237° Southwest 425 489 36,000  Level FlightAware
08:29AM 62.1110 21.2030 230° Southwest 421 484 36,000  Level FlightAware
08:29AM 62.0610 21.0810 229° Southwest 419 482 36,000  Level FlightAware
08:30AM 62.0030 20.9370 229° Southwest 420 483 36,000  Level FlightAware
08:31AM 61.9520 20.8130 229° Southwest 421 484 36,000  Level FlightAware
08:32AM 61.8950 20.6730 229° Southwest 421 484 36,000  Level FlightAware
08:32AM 61.8440 20.5490 229° Southwest 421 484 36,000  Level FlightAware
08:33AM 61.7940 20.4230 230° Southwest 414 476 36,000  Level FlightAware
08:36AM 61.6163 19.8467 237° Southwest  Level Estimated
08:37AM 61.5482 19.6296 237° Southwest  Level Estimated
08:38AM 61.4798 19.4134 237° Southwest  Level Estimated
08:39AM 61.4110 19.1982 236° Southwest  Level Estimated
08:39AM 61.3190 19.1630 236° Southwest 418 481 36,000  Level FlightAware
08:40AM 61.3418 18.9840 236° Southwest  Level Estimated
08:41AM 61.2030 18.8660 231° Southwest 420 483 36,000  Level FlightAware
08:42AM 61.1480 18.7270 231° Southwest 422 486 36,000  Level FlightAware
08:42AM 61.0970 18.5970 231° Southwest 422 486 36,000  Level FlightAware
08:43AM 61.0430 18.4610 231° Southwest 421 484 36,000  Level FlightAware
08:44AM 60.9930 18.3350 231° Southwest 421 484 36,000  Level FlightAware
08:45AM 60.9440 18.2130 230° Southwest 422 486 36,000  Level FlightAware
08:45AM 60.8870 18.0720 230° Southwest 424 488 36,000  Level FlightAware
08:46AM 60.8390 17.9520 231° Southwest 424 488 36,000  Level FlightAware
08:47AM 60.7890 17.8310 230° Southwest 424 488 36,000  Level FlightAware
08:47AM 60.7310 17.6880 230° Southwest 425 489 36,000  Level FlightAware
08:48AM 60.6820 17.5690 230° Southwest 425 489 36,000  Level FlightAware
08:49AM 60.6230 17.4270 230° Southwest 426 490 36,000  Level FlightAware
08:49AM 60.5740 17.3110 229° Southwest 428 493 36,000  Level FlightAware
08:50AM 60.5210 17.1840 230° Southwest 428 493 36,000  Level FlightAware
08:51AM 60.4630 17.0460 230° Southwest 429 494 36,000  Level FlightAware
08:52AM 60.4130 16.9270 230° Southwest 430 495 36,000  Level FlightAware
08:52AM 60.3540 16.7900 229° Southwest 429 494 36,000  Level FlightAware
08:53AM 60.3020 16.6690 229° Southwest 430 495 36,000  Level FlightAware
08:54AM 60.2450 16.5350 229° Southwest 430 495 36,000  Level FlightAware
08:54AM 60.1900 16.4100 229° Southwest 432 497 36,000  Level FlightAware
08:55AM 60.1400 16.2940 229° Southwest 433 498 36,000  Level FlightAware
08:56AM 60.0800 16.1580 229° Southwest 433 498 36,000  Level FlightAware
08:56AM 60.0270 16.0380 229° Southwest 434 499 36,000  Level FlightAware
08:57AM 59.9730 15.9160 229° Southwest 434 499 36,000  Level FlightAware
08:58AM 59.9120 15.7800 228° Southwest 433 498 36,000  Level FlightAware
08:59AM 59.8590 15.6610 228° Southwest 436 502 36,000  Level FlightAware
08:59AM 59.7990 15.5280 228° Southwest 436 502 36,000  Level FlightAware
09:00AM 59.7460 15.4110 228° Southwest 438 504 36,000  Level FlightAware
09:01AM 59.6920 15.2920 228° Southwest 438 504 36,000  Level FlightAware
09:01AM 59.6290 15.1560 228° Southwest 436 502 36,000  Level FlightAware
09:02AM 59.5780 15.0450 228° Southwest 436 502 36,000  Level FlightAware
09:03AM 59.5170 14.9130 228° Southwest 436 502 36,000  Level FlightAware
09:03AM 59.4620 14.7950 227° Southwest 439 505 36,000  Level FlightAware
09:04AM 59.4090 14.6810 228° Southwest 443 510 36,000  Level FlightAware
09:05AM 59.3440 14.5440 227° Southwest 442 509 36,000  Level FlightAware
09:06AM 59.2900 14.4290 227° Southwest 443 510 36,000  Level FlightAware
09:06AM 59.2270 14.2960 227° Southwest 445 512 36,000  Level FlightAware
09:07AM 59.1710 14.1790 227° Southwest 446 513 36,000  Level FlightAware
09:08AM 59.1110 14.0550 227° Southwest 447 514 36,000  Level FlightAware
09:08AM 59.0530 13.9340 227° Southwest 447 514 36,000  Level FlightAware
09:09AM 58.9980 13.8100 229° Southwest 442 509 36,000  Level FlightAware
09:10AM 58.9410 13.6670 232° Southwest 441 507 36,000  Level FlightAware
09:10AM 58.8930 13.5410 234° Southwest 442 509 36,000  Level FlightAware
09:11AM 58.8450 13.4140 234° Southwest 442 509 36,000  Level FlightAware
09:12AM 58.7910 13.2730 234° Southwest 444 511 36,000  Level FlightAware
09:13AM 58.7340 13.1280 233° Southwest 446 513 36,000  Level FlightAware
09:13AM 58.6840 13.0010 233° Southwest 448 516 36,000  Level FlightAware
09:14AM 58.6280 12.8590 233° Southwest 448 516 36,000  Level FlightAware
09:15AM 58.5810 12.7410 233° Southwest 447 514 36,000  Level FlightAware
09:15AM 58.5220 12.5940 232° Southwest 445 512 36,000  Level FlightAware
09:16AM 58.4750 12.4760 233° Southwest 445 512 36,000  Level FlightAware
09:17AM 58.4220 12.3450 232° Southwest 444 511 36,000  Level FlightAware
09:18AM 58.3690 12.2150 232° Southwest 446 513 36,000  Level FlightAware
09:18AM 58.3160 12.0850 232° Southwest 442 509 36,000  Level FlightAware
09:19AM 58.2630 11.9560 232° Southwest 443 510 36,000  Level FlightAware
09:20AM 58.2060 11.8180 232° Southwest 442 509 36,000  Level FlightAware
09:20AM 58.1570 11.6990 232° Southwest 441 507 36,000  Level FlightAware
09:21AM 58.1020 11.5660 232° Southwest 439 505 36,000  Level FlightAware
09:22AM 58.0520 11.4480 231° Southwest 439 505 36,000  Level FlightAware
09:22AM 57.9990 11.3220 232° Southwest 439 505 36,000  Level FlightAware
09:23AM 57.9440 11.1920 231° Southwest 439 505 36,000  Level FlightAware
09:24AM 57.8930 11.0740 231° Southwest 439 505 36,000  Level FlightAware
09:25AM 57.8380 10.9450 231° Southwest 439 505 36,000  Level FlightAware
09:25AM 57.7830 10.8170 231° Southwest 439 505 36,000  Level FlightAware
09:26AM 57.7320 10.7000 231° Southwest 440 506 36,000  Level FlightAware
09:27AM 57.6750 10.5690 231° Southwest 442 509 36,000  Level FlightAware
09:27AM 57.6260 10.4570 231° Southwest 442 509 36,000  Level FlightAware
09:28AM 57.5680 10.3240 231° Southwest 442 509 36,000  Level FlightAware
09:29AM 57.5220 10.2200 231° Southwest 443 510 36,000  Level FlightAware
09:29AM 57.4560 10.0720 230° Southwest 443 510 36,000  Level FlightAware
09:30AM 57.4040 9.9570 230° Southwest 443 510 36,000  Level FlightAware
09:31AM 57.3520 9.8410 230° Southwest 443 510 36,000  Level FlightAware
09:31AM 57.3010 9.7260 231° Southwest 440 506 36,000  Level FlightAware
09:32AM 57.2420 9.5960 230° Southwest 440 506 36,000  Level FlightAware
09:33AM 57.1880 9.4770 230° Southwest 440 506 36,000  Level FlightAware
09:34AM 57.1290 9.3490 230° Southwest 440 506 36,000  Level FlightAware
09:34AM 57.0760 9.2340 230° Southwest 442 509 36,000  Level FlightAware
09:35AM 57.0230 9.1190 230° Southwest 444 511 36,000  Level FlightAware
09:36AM 56.9560 8.9760 229° Southwest 446 513 36,000  Level FlightAware
09:36AM 56.9020 8.8610 229° Southwest 447 514 36,000  Level FlightAware
09:37AM 56.8490 8.7480 229° Southwest 448 516 36,000  Level FlightAware
09:38AM 56.7900 8.6230 229° Southwest 451 519 36,000  Level FlightAware
09:39AM 56.7350 8.5070 229° Southwest 454 522 36,000  Level FlightAware
09:39AM 56.6720 8.3750 229° Southwest 455 524 36,000  Level FlightAware
09:40AM 56.6160 8.2580 229° Southwest 457 526 36,000  Level FlightAware
09:41AM 56.5610 8.1440 229° Southwest 458 527 36,000  Level FlightAware
09:41AM 56.4970 8.0130 229° Southwest 459 528 36,000  Level FlightAware
09:42AM 56.4410 7.8980 229° Southwest 459 528 36,000  Level FlightAware
09:43AM 56.3790 7.7710 229° Southwest 460 529 36,000  Level FlightAware
09:43AM 56.3220 7.6550 228° Southwest 461 531 36,000  Level FlightAware
09:44AM 56.2650 7.5410 228° Southwest 461 531 36,000  Level FlightAware
09:45AM 56.2030 7.4160 228° Southwest 461 531 36,000  Level FlightAware
09:46AM 56.1470 7.3030 228° Southwest 460 529 36,000  Level FlightAware
09:46AM 56.0880 7.1860 228° Southwest 462 532 36,000  Level FlightAware
09:47AM 56.0240 7.0600 228° Southwest 463 533 36,000  Level FlightAware
09:48AM 55.9660 6.9450 228° Southwest 463 533 36,000  Level FlightAware
09:48AM 55.9020 6.8200 228° Southwest 465 535 36,000  Level FlightAware
09:49AM 55.8450 6.7090 228° Southwest 466 536 36,000 -1,860 Level FlightAware
09:50AM 55.7800 6.5970 228° Southwest 1 1 33,600 -1,380 Descending FlightAware UK
09:50AM 55.7840 6.5900 228° Southwest 468 539 35,100 -2,040 Climbing FlightAware
09:50AM 55.7573 6.5418 228° Southwest 1 1 33,000 -3,840 Descending FlightAware UK
09:50AM 55.7230 6.4718 229° Southwest 1 1 32,500 2,100 Descending FlightAware UK
09:50AM 55.7190 6.4650 229° Southwest 473 544 34,000 -1,200 Climbing FlightAware
09:51AM 55.6777 6.3876 229° Southwest 1 1 31,900 -1,200 Descending FlightAware UK
09:51AM 55.6610 6.3530 229° Southwest 474 545 33,200 -720 Climbing FlightAware
09:53AM 55.4916 6.0294 229° Southwest 1 1 30,400 -1,320 Descending FlightAware UK
09:53AM 55.4651 5.9789 227° Southwest 1 1 30,400  Level FlightAware UK
09:54AM 55.4386 5.9283 227° Southwest 1 1 30,400  Level FlightAware UK
09:55AM 55.3316 5.7278 227° Southwest 464 534 30,400 60 Level FlightAware UK
09:55AM 55.3047 5.6777 227° Southwest 464 534 30,500  Climbing FlightAware UK
09:56AM 55.2514 5.5767 227° Southwest 466 536 30,400  Descending FlightAware UK
09:57AM 55.0878 5.2764 226° Southwest 466 536 30,500  Climbing FlightAware UK
09:58AM 55.0603 5.2266 226° Southwest 464 534 30,400 -180 Descending FlightAware UK
09:58AM 55.0236 5.1602 226° Southwest 464 534 30,400  Level FlightAware UK
09:59AM 54.9235 4.9771 226° Southwest 464 534 30,400 540 Level FlightAware UK
10:01AM 54.7840 4.7280 226° Southwest 482 555 32,000 660 Climbing FlightAware
10:02AM 54.7120 4.6010 226° Southwest 482 555 32,000 -1,140 Level FlightAware
10:02AM 54.6447 4.4803 226° Southwest 464 534 30,400  Descending FlightAware UK
10:02AM 54.6510 4.4930 226° Southwest 483 556 32,000  Climbing FlightAware
10:03AM 54.5721 4.3764 226° Southwest 464 534 30,400  Descending FlightAware UK
10:03AM 54.5740 4.3790 226° Southwest 486 559 32,000  Climbing FlightAware
10:03AM 54.5235 4.3311 226° Southwest 464 534 30,400  Descending FlightAware UK
10:04AM 54.4920 4.3020 226° Southwest 496 571 32,000 1,620 Climbing FlightAware
10:04AM 54.4160 4.2330 208° Southwest 489 563 32,000 -1,440 Level FlightAware
10:05AM 54.3533 4.1772 208° Southwest 462 532 30,500  Descending FlightAware UK
10:05AM 54.3270 4.1530 208° Southwest 489 563 32,000  Climbing FlightAware
10:05AM 54.2807 4.1116 208° Southwest 462 532 30,500  Descending FlightAware UK
10:06AM 54.2390 4.0740 208° Southwest 488 562 32,000 1,380 Climbing FlightAware
10:06AM 54.1520 3.9970 208° Southwest 495 570 32,000 -2,160 Level FlightAware
10:06AM 54.1472 3.9921 208° Southwest 462 532 30,500 -2,820 Descending FlightAware UK
10:07AM 54.0863 3.9380 208° Southwest 460 529 30,500 2,040 Level FlightAware UK
10:07AM 54.0640 3.9180 208° Southwest 497 572 32,000  Climbing FlightAware
10:08AM 54.0007 3.8626 208° Southwest 460 529 30,500  Descending FlightAware UK
10:08AM 53.9830 3.8460 208° Southwest 498 573 32,000  Climbing FlightAware
10:08AM 53.9027 3.7763 208° Southwest 462 532 30,500  Descending FlightAware UK
10:09AM 53.8980 3.7720 208° Southwest 499 574 32,000  Climbing FlightAware
10:09AM 53.8536 3.7331 208° Southwest 460 529 30,500 -2,700 Descending FlightAware UK
10:09AM 53.8168 3.7007 207° Southwest 460 529 30,500 3,720 Level FlightAware UK
10:09AM 53.8140 3.6980 207° Southwest 500 575 32,000  Climbing FlightAware
10:10AM 53.7429 3.6363 207° Southwest 458 527 30,500  Descending FlightAware UK
10:10AM 53.7480 3.6410 207° Southwest 500 575 32,000 -240 Climbing FlightAware
10:10AM 53.6815 3.5828 207° Southwest 460 529 30,400 -1,980 Descending FlightAware UK
10:11AM 53.6318 3.5398 207° Southwest 460 529 30,400 2,400 Level FlightAware UK
10:11AM 53.6100 3.5210 207° Southwest 504 580 32,000 120 Climbing FlightAware
10:11AM 53.5322 3.4538 207° Southwest 460 529 30,500  Descending FlightAware UK
10:12AM 53.5280 3.4500 207° Southwest 506 582 32,000  Climbing FlightAware
10:12AM 53.4697 3.3999 207° Southwest 458 527 30,500  Descending FlightAware UK
10:12AM 53.4300 3.3660 207° Southwest 507 583 32,000 -180 Climbing FlightAware
10:13AM 53.3820 3.3250 207° Southwest 460 529 30,400  Descending FlightAware UK
10:13AM 53.3400 3.2890 207° Southwest 510 587 32,000 120 Climbing FlightAware
10:13AM 53.2938 3.2499 207° Southwest 460 529 30,500  Descending FlightAware UK
10:14AM 53.2720 3.2310 207° Southwest 511 588 32,000 -180 Climbing FlightAware
10:14AM 53.2181 3.1856 207° Southwest 462 532 30,400  Descending FlightAware UK
10:14AM 53.1630 3.1380 207° Southwest 510 587 32,000 120 Climbing FlightAware
10:15AM 53.1170 3.1003 207° Southwest 460 529 30,500  Descending FlightAware UK
10:15AM 53.0910 3.0780 207° Southwest 510 587 32,000 1,500 Climbing FlightAware
10:16AM 52.9930 2.9960 207° Southwest 512 589 32,000  Level FlightAware
10:17AM 52.9010 2.9190 207° Southwest 511 588 32,000  Level FlightAware
10:17AM 52.8150 2.8480 207° Southwest 512 589 32,000  Level FlightAware
10:18AM 52.7170 2.7670 207° Southwest 513 590 32,000  Level FlightAware
10:19AM 52.6390 2.7020 207° Southwest 512 589 32,000 -1,740 Level FlightAware
10:19AM 52.5977 2.6679 207° Southwest 464 534 30,400  Descending FlightAware UK
10:19AM 52.5430 2.6230 207° Southwest 510 587 32,000  Climbing FlightAware
10:20AM 52.4972 2.5847 207° Southwest 460 529 30,400 -2,460 Descending FlightAware UK
10:20AM 52.4594 2.5519 208° Southwest 456 525 30,500 4,320 Climbing FlightAware UK
10:20AM 52.4570 2.5490 208° Southwest 512 589 32,000  Climbing FlightAware
10:20AM 52.3973 2.4977 208° Southwest 458 527 30,500  Descending FlightAware UK
10:21AM 52.3710 2.4750 208° Southwest 513 590 32,000 4,080 Climbing FlightAware
10:21AM 52.3516 2.4588 207° Southwest 513 590 32,000 -2,880 Level FlightAware ADS-B
10:21AM 52.2963 2.4118 207° Southwest 466 536 30,400  Descending FlightAware UK
10:21AM 52.2800 2.3980 207° Southwest 509 586 32,000 120 Climbing FlightAware
10:22AM 52.2085 2.3380 207° Southwest 466 536 30,500  Descending FlightAware UK
10:22AM 52.1990 2.3290 207° Southwest 505 581 32,000 -300 Climbing FlightAware
10:22AM 52.1589 2.2955 207° Southwest 466 536 30,400 -2,760 Descending FlightAware UK
10:23AM 52.1233 2.2640 208° Southwest 466 536 30,500 3,840 Climbing FlightAware UK
10:23AM 52.1150 2.2560 208° Southwest 497 572 32,000  Climbing FlightAware
10:23AM 52.0744 2.2214 208° Southwest 476 548 30,500 -2,760 Descending FlightAware UK
10:23AM 52.0386 2.1892 209° Southwest 472 543 30,400 2,160 Descending FlightAware UK
10:24AM 52.0130 2.1561 209° Southwest 486 559 31,700 -1,680 Climbing FlightAware ADS-B
10:24AM 51.9781 2.1049 209° Southwest 444 511 29,400 -2,940 Descending FlightAware UK
10:24AM 51.9630 2.0760 209° Southwest 471 542 30,000 -1,020 Climbing FlightAware
10:24AM 51.9369 2.0211 232° Southwest 472 543 28,900 -5,520 Descending FlightAware ADS-B
10:25AM 51.9150 1.9734 232° Southwest 406 467 26,900 -2,040 Descending FlightAware UK
10:25AM 51.8971 1.9334 232° Southwest 429 494 27,800 -2,520 Climbing FlightAware ADS-B
10:25AM 51.8733 1.8820 232° Southwest 382 440 25,400 -2,100 Descending FlightAware UK
10:26AM 51.8590 1.8510 232° Southwest 402 463 26,600 -1,680 Climbing FlightAware
10:26AM 51.8339 1.7965 232° Southwest 374 430 24,400 -3,720 Descending FlightAware UK
10:26AM 51.8146 1.7549 233° Southwest 372 428 24,200 4,080 Descending FlightAware UK
10:26AM 51.8170 1.7600 233° Southwest 384 442 25,700 -1,380 Climbing FlightAware
10:27AM 51.7955 1.7144 233° Southwest 364 419 23,800 -3,780 Descending FlightAware UK
10:27AM 51.7768 1.6741 233° Southwest 370 426 23,500 2,520 Descending FlightAware UK
10:27AM 51.7690 1.6580 233° Southwest 383 441 25,000 840 Climbing FlightAware
10:28AM 51.7460 1.5735 246° West 364 419 24,100 -3,240 Descending FlightAware ADS-B
10:28AM 51.7405 1.5065 246° West 358 412 22,000 -1,320 Descending FlightAware UK
10:28AM 51.7395 1.4896 246° West 353 406 23,400 1,500 Climbing FlightAware ADS-B
10:29AM 51.7342 1.4058 264° West 348 400 23,000 -2,580 Descending FlightAware ADS-B
10:29AM 51.7316 1.3668 264° West 350 403 21,400  Descending FlightAware UK
10:29AM 51.7293 1.3259 264° West 347 399 23,000 -180 Climbing FlightAware ADS-B
10:29AM 51.7261 1.2753 264° West 350 403 21,300 -1,020 Descending FlightAware UK
10:30AM 51.7233 1.2353 264° West 343 395 22,400 -1,200 Climbing FlightAware ADS-B
10:30AM 51.7198 1.1846 264° West 350 403 20,600 -1,140 Descending FlightAware UK
10:30AM 51.7180 1.1561 264° West 334 384 21,800 840 Climbing FlightAware ADS-B
10:31AM 51.7130 1.0825 264° West 328 377 21,200 -3,000 Descending FlightAware ADS-B
10:31AM 51.7099 1.0385 264° West 346 398 19,400 -420 Descending FlightAware UK
10:31AM 51.7074 1.0039 264° West 312 359 21,000 2,100 Climbing FlightAware ADS-B
10:32AM 51.7028 0.9364 264° West 299 344 21,000 -1,920 Level FlightAware ADS-B
10:32AM 51.6995 0.8900 264° West 318 366 19,400  Descending FlightAware UK
10:32AM 51.6985 0.8701 264° West 299 344 21,000  Climbing FlightAware ADS-B
10:33AM 51.6962 0.8370 264° West 320 368 19,400  Descending FlightAware UK
10:33AM 51.6937 0.8011 264° West 301 346 21,000 120 Climbing FlightAware ADS-B
10:33AM 51.6906 0.7570 264° West 320 368 19,500  Descending FlightAware UK
10:33AM 51.6881 0.7224 264° West 301 346 21,000  Climbing FlightAware ADS-B
10:34AM 51.6848 0.6770 264° West 320 368 19,500  Descending FlightAware UK
10:34AM 51.6831 0.6525 264° West 300 345 21,000 2,100 Climbing FlightAware ADS-B
10:34AM 51.6782 0.5850 263° West 301 346 21,000  Level FlightAware ADS-B
10:35AM 51.6727 0.5091 263° West 301 346 21,000 -1,980 Level FlightAware ADS-B
10:35AM 51.6694 0.4645 263° West 320 368 19,300 -420 Descending FlightAware UK
10:36AM 51.6673 0.4354 263° West 306 352 20,800 -360 Climbing FlightAware ADS-B
10:36AM 51.6633 0.3835 263° West 318 366 19,100 -420 Descending FlightAware UK
10:36AM 51.6622 0.3673 263° West 303 349 20,600 1,680 Climbing FlightAware ADS-B
10:37AM 51.6571 0.2990 263° West 302 348 20,200 -1,020 Descending FlightAware ADS-B
10:37AM 51.6521 0.2315 263° West 300 345 19,600 -2,940 Descending FlightAware ADS-B
10:37AM 51.6485 0.1839 263° West 314 361 17,700 -1,020 Descending FlightAware UK
10:38AM 51.6470 0.1643 263° West 295 339 19,100 4,080 Climbing FlightAware ADS-B
10:38AM 51.6451 0.1446 261° West 298 343 19,000 -960 Descending FlightAware ADS-B
10:38AM 51.6431 0.1345 252° West 306 352 18,900 -1,140 Descending FlightAware ADS-B
10:38AM 51.6393 0.1212 245° Southwest 313 360 18,800 -1,020 Descending FlightAware ADS-B
10:38AM 51.6350 0.1099 238° Southwest 318 366 18,700 -1,200 Descending FlightAware ADS-B
10:38AM 51.6305 0.1004 233° Southwest 323 372 18,600 -1,380 Descending FlightAware ADS-B
10:38AM 51.6263 0.0931 227° Southwest 326 375 18,500 -600 Descending FlightAware ADS-B
10:38AM 51.6205 0.0845 222° Southwest 331 381 18,500 -900 Level FlightAware ADS-B
10:38AM 51.6102 0.0733 214° Southwest 341 392 18,300 -1,380 Descending FlightAware ADS-B
10:39AM 51.5955 0.0639 202° Southwest 353 406 18,100 -780 Descending FlightAware ADS-B
10:39AM 51.5859 0.0611 190° South 359 413 18,100 -480 Level FlightAware ADS-B
10:39AM 51.5741 0.0610 180° South 363 418 18,000 -540 Descending FlightAware ADS-B
10:39AM 51.5660 0.0629 172° South 366 421 18,000  Level FlightAware ADS-B
10:39AM 51.5580 0.0665 164° South 367 422 18,000  Level FlightAware ADS-B
10:39AM 51.5522 0.0703 158° South 368 423 18,000  Level FlightAware ADS-B
10:39AM 51.5434 0.0782 151° Southeast 369 425 18,000  Level FlightAware ADS-B
10:39AM 51.5380 0.0848 143° Southeast 369 425 18,000  Level FlightAware ADS-B
10:39AM 51.5299 0.0980 135° Southeast 367 422 18,000  Level FlightAware ADS-B
10:39AM 51.5242 0.1113 125° Southeast 363 418 18,000  Level FlightAware ADS-B
10:39AM 51.5211 0.1210 117° Southeast 360 414 18,000  Level FlightAware ADS-B
10:40AM 51.5175 0.1387 108° East 352 405 18,000  Level FlightAware ADS-B
10:40AM 51.5163 0.1493 100° East 346 398 18,000  Level FlightAware ADS-B
10:40AM 51.5159 0.1669 92° East 338 389 18,000  Level FlightAware ADS-B
10:40AM 51.5166 0.1772 84° East 332 382 18,000  Level FlightAware ADS-B
10:40AM 51.5204 0.2127 80° East 331 381 18,000 -2,460 Level FlightAware ADS-B
10:40AM 51.5245 0.2673 80° East 308 354 16,500 -240 Descending FlightAware UK
10:41AM 51.5260 0.2874 80° East 330 380 17,900 3,660 Climbing FlightAware ADS-B
10:41AM 51.5291 0.3167 80° East 315 362 17,800 -360 Descending FlightAware ADS-B
10:41AM 51.5316 0.3273 69° East 306 352 17,800 -480 Level FlightAware ADS-B
10:41AM 51.5382 0.3442 58° Northeast 286 329 17,700 -480 Descending FlightAware ADS-B
10:41AM 51.5423 0.3519 49° Northeast 280 322 17,700 -600 Level FlightAware ADS-B
10:41AM 51.5469 0.3592 45° Northeast 275 316 17,600 -600 Descending FlightAware ADS-B
10:41AM 51.5511 0.3649 40° Northeast 271 312 17,600 -480 Level FlightAware ADS-B
10:41AM 51.5595 0.3739 34° Northeast 264 304 17,500 -360 Descending FlightAware ADS-B
10:42AM 51.5697 0.3812 24° Northeast 255 293 17,500 -300 Level FlightAware ADS-B
10:42AM 51.5818 0.3861 14° North 249 287 17,400 -840 Descending FlightAware ADS-B
10:42AM 51.5859 0.3869 North 247 284 17,300 -720 Descending FlightAware ADS-B
10:42AM 51.5919 0.3873 North 243 280 17,300 -480 Level FlightAware ADS-B
10:42AM 51.6013 0.3860 355° North 239 275 17,200 -420 Descending FlightAware ADS-B
10:42AM 51.6084 0.3833 347° North 237 273 17,200 -420 Level FlightAware ADS-B
10:42AM 51.6170 0.3780 339° North 237 273 17,100 -720 Descending FlightAware ADS-B
10:42AM 51.6259 0.3697 330° Northwest 239 275 17,000 -480 Descending FlightAware ADS-B
10:43AM 51.6303 0.3643 322° Northwest 241 277 17,000 -420 Level FlightAware ADS-B
10:43AM 51.6381 0.3519 315° West 243 280 16,900 -720 Descending FlightAware ADS-B
10:43AM 51.6427 0.3420 307° West 247 284 16,800 -480 Descending FlightAware ADS-B
10:43AM 51.6468 0.3304 300° West 251 289 16,800 -540 Level FlightAware ADS-B
10:43AM 51.6492 0.3211 292° West 255 293 16,700 -780 Descending FlightAware ADS-B
10:43AM 51.6522 0.3018 284° West 262 302 16,600 -360 Descending FlightAware ADS-B
10:43AM 51.6529 0.2869 274° West 270 311 16,600 -600 Level FlightAware ADS-B
10:43AM 51.6527 0.2781 268° West 273 314 16,500 -720 Descending FlightAware ADS-B
10:43AM 51.6520 0.2695 263° West 276 318 16,500 -420 Level FlightAware ADS-B
10:44AM 51.6505 0.2476 264° West 270 311 16,400 -420 Descending FlightAware ADS-B
10:44AM 51.6504 0.2394 269° West 262 302 16,400 -360 Level FlightAware ADS-B
10:44AM 51.6502 0.2144 269° West 261 300 16,300 -720 Descending FlightAware ADS-B
10:44AM 51.6472 0.1561 265° West 261 300 15,900 -840 Descending FlightAware ADS-B
10:45AM 51.6460 0.1433 261° West 263 303 15,800 -600 Descending FlightAware ADS-B
10:45AM 51.6449 0.1374 253° West 269 310 15,800 -1,200 Level FlightAware ADS-B
10:45AM 51.6414 0.1247 246° West 277 319 15,600 -1,500 Descending FlightAware ADS-B
10:45AM 51.6373 0.1143 237° Southwest 283 326 15,500 -900 Descending FlightAware ADS-B
10:45AM 51.6307 0.1012 231° Southwest 286 329 15,400 -720 Descending FlightAware ADS-B
10:45AM 51.6227 0.0891 223° Southwest 289 333 15,300 -900 Descending FlightAware ADS-B
10:45AM 51.6167 0.0819 217° Southwest 293 337 15,200 -1,740 Descending FlightAware ADS-B
10:45AM 51.6062 0.0730 208° Southwest 302 348 14,900 -2,040 Descending FlightAware ADS-B
10:45AM 51.6016 0.0703 200° South 305 351 14,800 -1,380 Descending FlightAware ADS-B
10:45AM 51.5934 0.0672 193° South 310 357 14,700 -1,500 Descending FlightAware ADS-B
10:46AM 51.5856 0.0658 186° South 313 360 14,500 -1,680 Descending FlightAware ADS-B
10:46AM 51.5773 0.0661 178° South 314 361 14,400 -1,800 Descending FlightAware ADS-B
10:46AM 51.5706 0.0677 172° South 315 362 14,200 -1,500 Descending FlightAware ADS-B
10:46AM 51.5557 0.0764 160° South 312 359 14,000 -1,200 Descending FlightAware ADS-B
10:46AM 51.5504 0.0814 150° Southeast 306 352 13,900 -1,380 Descending FlightAware ADS-B
10:46AM 51.5453 0.0875 143° Southeast 303 349 13,800 -1,380 Descending FlightAware ADS-B
10:46AM 51.5410 0.0939 137° Southeast 299 344 13,700 -1,500 Descending FlightAware ADS-B
10:46AM 51.5269 0.1307 122° Southeast 286 329 13,200 -1,440 Descending FlightAware ADS-B
10:47AM 51.5251 0.1408 106° East 283 326 13,100 -1,740 Descending FlightAware ADS-B
10:47AM 51.5240 0.1725 93° East 277 319 12,600 -1,980 Descending FlightAware ADS-B
10:47AM 51.5268 0.2029 82° East 273 314 12,100 -2,040 Descending FlightAware ADS-B
10:47AM 51.5277 0.2205 85° East 274 315 11,800 -2,040 Descending FlightAware ADS-B
10:47AM 51.5284 0.2277 81° East 275 316 11,700 -1,380 Descending FlightAware ADS-B
10:47AM 51.5303 0.2389 75° East 274 315 11,600 -5,520 Descending FlightAware ADS-B
10:48AM 51.5371 0.2724 75° East 256 295 9,600 -960 Descending FlightAware UK
10:48AM 51.5431 0.3015 75° East 280 322 11,100 2,760 Climbing FlightAware ADS-B
10:48AM 51.5490 0.3267 69° East 280 322 10,900 -600 Descending FlightAware ADS-B
10:48AM 51.5544 0.3404 58° Northeast 275 316 10,900 -480 Level FlightAware ADS-B
10:48AM 51.5586 0.3476 47° Northeast 269 310 10,800 -540 Descending FlightAware ADS-B
10:48AM 51.5650 0.3551 36° Northeast 261 300 10,800 -480 Level FlightAware ADS-B
10:49AM 51.5721 0.3601 24° Northeast 252 290 10,700 -600 Descending FlightAware ADS-B
10:49AM 51.5766 0.3619 14° North 249 287 10,700  Level FlightAware ADS-B
10:49AM 51.5820 0.3630 North 246 283 10,700 -420 Level FlightAware ADS-B
10:49AM 51.6103 0.3649 North 246 283 10,500 -600 Descending FlightAware ADS-B
10:49AM 51.6164 0.3636 353° North 244 281 10,400 -960 Descending FlightAware ADS-B
10:49AM 51.6244 0.3590 340° North 242 278 10,300 -540 Descending FlightAware ADS-B
10:49AM 51.6289 0.3545 328° Northwest 239 275 10,300 -600 Level FlightAware ADS-B
10:50AM 51.6329 0.3487 318° Northwest 238 274 10,200 -360 Descending FlightAware ADS-B
10:50AM 51.6421 0.3293 307° West 236 272 10,200 -300 Level FlightAware ADS-B
10:50AM 51.6466 0.3148 297° West 235 270 10,100 -720 Descending FlightAware ADS-B
10:50AM 51.6488 0.3020 286° West 235 270 10,000 -720 Descending FlightAware ADS-B
10:50AM 51.6507 0.2859 281° West 234 269 9,900 -480 Descending FlightAware ADS-B
10:50AM 51.6519 0.2560 274° West 235 270 9,800 -540 Descending FlightAware ADS-B
10:51AM 51.6520 0.2455 271° West 236 272 9,700 -600 Descending FlightAware ADS-B
10:51AM 51.6519 0.2388 269° West 237 273 9,700 -360 Level FlightAware ADS-B
10:51AM 51.6505 0.2120 265° West 239 275 9,600 -480 Descending FlightAware ADS-B
10:51AM 51.6493 0.1885 265° West 239 275 9,500 -660 Descending FlightAware ADS-B
10:51AM 51.6479 0.1615 265° West 239 275 9,300 -600 Descending FlightAware ADS-B
10:52AM 51.6466 0.1364 265° West 239 275 9,200 -360 Descending FlightAware ADS-B
10:52AM 51.6461 0.1311 261° West 241 277 9,200  Level FlightAware ADS-B
10:52AM 51.6451 0.1245 256° West 242 278 9,200 -720 Level FlightAware ADS-B
10:52AM 51.6429 0.1156 248° West 245 282 9,100 -720 Descending FlightAware ADS-B
10:52AM 51.6404 0.1089 239° Southwest 249 287 9,100 -720 Level FlightAware ADS-B
10:52AM 51.6369 0.1022 230° Southwest 250 288 9,000 -600 Descending FlightAware ADS-B
10:52AM 51.6319 0.0954 220° Southwest 252 290 9,000  Level FlightAware ADS-B
10:52AM 51.6281 0.0917 211° Southwest 254 292 9,000 -900 Level FlightAware ADS-B
10:52AM 51.6238 0.0887 203° Southwest 256 295 8,900 -900 Descending FlightAware ADS-B
10:52AM 51.6203 0.0871 196° South 257 296 8,900 -720 Level FlightAware ADS-B
10:52AM 51.6133 0.0854 188° South 258 297 8,800 -720 Descending FlightAware ADS-B
10:52AM 51.6087 0.0857 178° South 260 299 8,800  Level FlightAware ADS-B
10:52AM 51.6046 0.0866 172° South 259 298 8,800 -540 Level FlightAware ADS-B
10:53AM 51.5955 0.0917 161° South 260 299 8,700 -540 Descending FlightAware ADS-B
10:53AM 51.5911 0.0958 150° Southeast 262 302 8,700  Level FlightAware ADS-B
10:53AM 51.5861 0.1026 140° Southeast 264 304 8,700 -720 Level FlightAware ADS-B
10:53AM 51.5831 0.1080 132° Southeast 264 304 8,600 -900 Descending FlightAware ADS-B
10:53AM 51.5805 0.1141 124° Southeast 263 303 8,600 -540 Level FlightAware ADS-B
10:53AM 51.5767 0.1286 113° Southeast 263 303 8,500 -480 Descending FlightAware ADS-B
10:53AM 51.5756 0.1381 101° East 263 303 8,500 -600 Level FlightAware ADS-B
10:53AM 51.5753 0.1489 93° East 261 300 8,400 -540 Descending FlightAware ADS-B
10:53AM 51.5771 0.1819 85° East 261 300 8,300 -300 Descending FlightAware ADS-B
10:54AM 51.5782 0.1894 77° East 262 302 8,300 -900 Level FlightAware ADS-B
10:54AM 51.5796 0.1952 69° East 262 302 8,200 -780 Descending FlightAware ADS-B
10:54AM 51.5821 0.2034 64° Northeast 261 300 8,200 -480 Level FlightAware ADS-B
10:54AM 51.5879 0.2151 51° Northeast 258 297 8,100 -540 Descending FlightAware ADS-B
10:54AM 51.5916 0.2200 40° Northeast 256 295 8,100  Level FlightAware ADS-B
10:54AM 51.5950 0.2236 33° Northeast 254 292 8,100 -1,020 Level FlightAware ADS-B
10:54AM 51.5985 0.2264 27° Northeast 254 292 8,000 -900 Descending FlightAware ADS-B
10:54AM 51.6029 0.2289 19° North 250 288 8,000  Level FlightAware ADS-B
10:54AM 51.6157 0.2300 North 244 281 8,000  Level FlightAware ADS-B
10:54AM 51.6232 0.2267 344° North 239 275 8,000  Level FlightAware ADS-B
10:54AM 51.6289 0.2216 331° Northwest 237 273 8,000  Level FlightAware ADS-B
10:55AM 51.6338 0.2159 324° Northwest 235 270 8,000  Level FlightAware ADS-B
10:55AM 51.6387 0.2097 322° Northwest 235 270 8,000  Level FlightAware ADS-B
10:55AM 51.6420 0.2050 319° Northwest 234 269 8,000  Level FlightAware ADS-B
10:55AM 51.6445 0.2007 313° West 234 269 8,000  Level FlightAware ADS-B
10:55AM 51.6469 0.1958 308° West 234 269 8,000  Level FlightAware ADS-B
10:55AM 51.6491 0.1897 300° West 234 269 8,000  Level FlightAware ADS-B
10:55AM 51.6509 0.1828 293° West 234 269 8,000  Level FlightAware ADS-B
10:55AM 51.6552 0.1616 288° West 233 268 8,000  Level FlightAware ADS-B
10:55AM 51.6560 0.1550 281° West 233 268 8,000  Level FlightAware ADS-B
10:55AM 51.6569 0.1402 276° West 236 272 8,000  Level FlightAware ADS-B
10:56AM 51.6575 0.1130 272° West 237 273 8,000  Level FlightAware ADS-B
10:56AM 51.6578 0.0842 271° West 239 275 8,000 -240 Level FlightAware ADS-B
10:56AM 51.6580 0.0566 271° West 239 275 7,900 -600 Descending FlightAware ADS-B
10:56AM 51.6582 0.0266 271° West 238 274 7,700 -600 Descending FlightAware ADS-B
10:57AM 51.6584 -0.0009 271° West 238 274 7,600 -420 Descending FlightAware ADS-B
10:57AM 51.6588 -0.0289 271° West 241 277 7,500 -420 Descending FlightAware ADS-B
10:57AM 51.6591 -0.0523 271° West 241 277 7,400 -600 Descending FlightAware ADS-B
10:57AM 51.6591 -0.0672 270° West 241 277 7,300 -600 Descending FlightAware ADS-B
10:57AM 51.6588 -0.0735 266° West 242 278 7,300 -720 Level FlightAware ADS-B
10:57AM 51.6574 -0.0837 257° West 244 281 7,200 -1,140 Descending FlightAware ADS-B
10:58AM 51.6555 -0.0913 248° West 246 283 7,100 -780 Descending FlightAware ADS-B
10:58AM 51.6538 -0.0964 241° Southwest 247 284 7,100 -900 Level FlightAware ADS-B
10:58AM 51.6507 -0.1030 233° Southwest 247 284 7,000 -1,500 Descending FlightAware ADS-B
10:58AM 51.6474 -0.1083 225° Southwest 248 285 6,900 -780 Descending FlightAware ADS-B
10:58AM 51.6443 -0.1121 217° Southwest 248 285 6,900 -900 Level FlightAware ADS-B
10:58AM 51.6410 -0.1151 210° Southwest 249 287 6,800 -1,740 Descending FlightAware ADS-B
10:58AM 51.6371 -0.1179 204° Southwest 248 285 6,700 -780 Descending FlightAware ADS-B
10:58AM 51.6326 -0.1199 196° South 248 285 6,700 -900 Level FlightAware ADS-B
10:58AM 51.6289 -0.1208 188° South 249 287 6,600 -900 Descending FlightAware ADS-B
10:58AM 51.6248 -0.1208 181° South 249 287 6,600 -720 Level FlightAware ADS-B
10:58AM 51.6189 -0.1196 172° South 249 287 6,500 -720 Descending FlightAware ADS-B
10:58AM 51.6144 -0.1173 163° South 252 290 6,500  Level FlightAware ADS-B
10:58AM 51.6108 -0.1147 156° South 252 290 6,500 -780 Level FlightAware ADS-B
10:58AM 51.6059 -0.1100 149° Southeast 255 293 6,400 -600 Descending FlightAware ADS-B
10:59AM 51.5996 -0.1026 144° Southeast 254 292 6,400 -540 Level FlightAware ADS-B
10:59AM 51.5842 -0.0825 141° Southeast 252 290 6,200 -900 Descending FlightAware ADS-B
10:59AM 51.5673 -0.0632 145° Southeast 249 287 5,900 -1,080 Descending FlightAware ADS-B
10:59AM 51.5621 -0.0601 160° South 245 282 5,800 -1,020 Descending FlightAware ADS-B
10:59AM 51.5540 -0.0573 168° South 242 278 5,700 -1,020 Descending FlightAware ADS-B
11:00AM 51.5361 -0.0536 173° South 233 268 5,400 -960 Descending FlightAware ADS-B
11:00AM 51.5196 -0.0500 172° South 223 257 5,200 -780 Descending FlightAware ADS-B
11:00AM 51.5044 -0.0468 173° South 214 246 5,000 -660 Descending FlightAware ADS-B
11:00AM 51.4918 -0.0439 172° South 206 237 4,900 -600 Descending FlightAware ADS-B
11:00AM 51.4831 -0.0436 179° South 198 228 4,800 -480 Descending FlightAware ADS-B
11:01AM 51.4796 -0.0449 193° South 194 223 4,800 -900 Level FlightAware ADS-B
11:01AM 51.4773 -0.0465 203° Southwest 191 220 4,700 -900 Descending FlightAware ADS-B
11:01AM 51.4743 -0.0492 210° Southwest 184 212 4,700  Level FlightAware ADS-B
11:01AM 51.4720 -0.0529 225° Southwest 181 208 4,700 -720 Level FlightAware ADS-B
11:01AM 51.4701 -0.0578 238° Southwest 176 203 4,600 -900 Descending FlightAware ADS-B
11:01AM 51.4690 -0.0689 261° West 171 197 4,500 -480 Descending FlightAware ADS-B
11:01AM 51.4702 -0.0754 286° West 177 204 4,500  Level FlightAware ADS-B
11:01AM 51.4714 -0.0790 298° West 183 211 4,500 -1,020 Level FlightAware ADS-B
11:01AM 51.4729 -0.0829 301° West 184 212 4,400 -900 Descending FlightAware ADS-B
11:01AM 51.4746 -0.0875 301° West 182 209 4,400 -720 Level FlightAware ADS-B
11:01AM 51.4761 -0.0934 292° West 181 208 4,300 -1,380 Descending FlightAware ADS-B
11:01AM 51.4768 -0.0979 284° West 183 211 4,200 -1,020 Descending FlightAware ADS-B
11:01AM 51.4776 -0.1093 276° West 180 207 4,100 -1,200 Descending FlightAware ADS-B
11:02AM 51.4780 -0.1186 274° West 176 203 3,900 -1,080 Descending FlightAware ADS-B
11:02AM 51.4781 -0.1391 270° West 175 201 3,700 -840 Descending FlightAware ADS-B
11:02AM 51.4781 -0.1551 270° West 173 199 3,500 -960 Descending FlightAware ADS-B
11:03AM 51.4781 -0.1944 270° West 171 197 3,000 -1,080 Descending FlightAware ADS-B
11:03AM 51.4781 -0.2131 270° West 157 181 2,700 -3,720 Descending FlightAware ADS-B
11:03AM 51.4781 -0.2335 270° West 168 193 900 -2,400 Descending FlightAware UK
11:04AM 51.4780 -0.2796 270° West 164 189 300 780 Descending FlightAware UK
11:04AM 51.4780 -0.2920 270° West 146 168 1,700 1,380 Climbing FlightAware
11:05AM 51.4780 -0.3230 270° West 142 163 1,400 -720 Descending FlightAware
11:05AM 51.4780 -0.3540 270° West 134 154 1,000 -900 Descending FlightAware
11:06AM 51.4780 -0.3820 270° West 134 154 600 -840 Descending FlightAware
11:06AM 51.4780 -0.4000 270° West 136 157 400 -720 Descending FlightAware
11:06AM 51.4780 -0.4240 270° West 136 157 100 -360 Descending FlightAware
11:07AM 51.4780 -0.4490 270° West 136 157 100  Level FlightAware